sensor_id;sensor_type;location;lat;lon;timestamp;temperature;humidity
11112;DHT22;5609;49.466;8.468;2023-03-01T00:01:27;0.60;99.90
11112;DHT22;5609;49.466;8.468;2023-03-01T00:03:55;0.70;99.90
11112;DHT22;5609;49.466;8.468;2023-03-01T00:06:23;0.70;99.90
11112;DHT22;5609;49.466;8.468;2023-03-01T00:08:50;0.70;99.90
11112;DHT22;5609;49.466;8.468;2023-03-01T00:11:18;0.70;99.90
11112;DHT22;5609;49.466;8.468;2023-03-01T00:13:48;0.80;99.90
11112;DHT22;5609;49.466;8.468;2023-03-01T00:16:17;0.70;99.90
11112;DHT22;5609;49.466;8.468;2023-03-01T00:18:44;0.70;99.90
11112;DHT22;5609;49.466;8.468;2023-03-01T00:21:11;0.70;99.90
11112;DHT22;5609;49.466;8.468;2023-03-01T00:23:38;0.70;99.90
11112;DHT22;5609;49.466;8.468;2023-03-01T00:26:06;0.80;99.90
11112;DHT22;5609;49.466;8.468;2023-03-01T00:28:33;0.80;99.90
11112;DHT22;5609;49.466;8.468;2023-03-01T00:31:04;0.90;99.90
11112;DHT22;5609;49.466;8.468;2023-03-01T00:33:31;0.90;99.90
11112;DHT22;5609;49.466;8.468;2023-03-01T00:35:58;1.00;99.90
11112;DHT22;5609;49.466;8.468;2023-03-01T00:38:25;0.90;99.90
11112;DHT22;5609;49.466;8.468;2023-03-01T00:40:52;0.90;99.90
11112;DHT22;5609;49.466;8.468;2023-03-01T00:43:18;0.80;99.90
11112;DHT22;5609;49.466;8.468;2023-03-01T00:45:45;0.80;99.90
11112;DHT22;5609;49.466;8.468;2023-03-01T00:48:13;0.70;99.90
11112;DHT22;5609;49.466;8.468;2023-03-01T00:50:40;0.70;99.90
11112;DHT22;5609;49.466;8.468;2023-03-01T00:53:06;0.70;99.90
11112;DHT22;5609;49.466;8.468;2023-03-01T00:55:33;0.70;99.90
11112;DHT22;5609;49.466;8.468;2023-03-01T00:58:00;0.80;99.90
11112;DHT22;5609;49.466;8.468;2023-03-01T01:00:28;0.70;99.90
11112;DHT22;5609;49.466;8.468;2023-03-01T01:02:55;0.70;99.90
11112;DHT22;5609;49.466;8.468;2023-03-01T01:05:23;0.60;99.90
11112;DHT22;5609;49.466;8.468;2023-03-01T01:07:49;0.60;99.90
11112;DHT22;5609;49.466;8.468;2023-03-01T01:10:16;0.50;99.90
11112;DHT22;5609;49.466;8.468;2023-03-01T01:12:44;0.50;99.90
11112;DHT22;5609;49.466;8.468;2023-03-01T01:15:11;0.40;99.90
11112;DHT22;5609;49.466;8.468;2023-03-01T01:17:39;0.40;99.90
11112;DHT22;5609;49.466;8.468;2023-03-01T01:20:08;0.30;99.90
11112;DHT22;5609;49.466;8.468;2023-03-01T01:22:36;0.30;99.90
11112;DHT22;5609;49.466;8.468;2023-03-01T01:25:03;0.30;99.90
11112;DHT22;5609;49.466;8.468;2023-03-01T01:27:30;0.30;99.90
11112;DHT22;5609;49.466;8.468;2023-03-01T01:29:56;0.30;99.90
11112;DHT22;5609;49.466;8.468;2023-03-01T01:32:23;0.30;99.90
11112;DHT22;5609;49.466;8.468;2023-03-01T01:34:50;0.30;99.90
11112;DHT22;5609;49.466;8.468;2023-03-01T01:37:16;0.30;99.90
11112;DHT22;5609;49.466;8.468;2023-03-01T01:39:45;0.30;99.90
11112;DHT22;5609;49.466;8.468;2023-03-01T01:42:15;0.30;99.90
11112;DHT22;5609;49.466;8.468;2023-03-01T01:44:42;0.30;99.90
11112;DHT22;5609;49.466;8.468;2023-03-01T01:47:14;0.30;99.90
11112;DHT22;5609;49.466;8.468;2023-03-01T01:49:45;0.30;99.90
11112;DHT22;5609;49.466;8.468;2023-03-01T01:52:17;0.20;99.90
11112;DHT22;5609;49.466;8.468;2023-03-01T01:54:50;0.10;99.90
11112;DHT22;5609;49.466;8.468;2023-03-01T01:57:22;0.10;99.90
11112;DHT22;5609;49.466;8.468;2023-03-01T01:59:53;0.20;99.90
11112;DHT22;5609;49.466;8.468;2023-03-01T02:02:21;0.20;99.90
11112;DHT22;5609;49.466;8.468;2023-03-01T02:04:48;0.20;99.90
11112;DHT22;5609;49.466;8.468;2023-03-01T02:07:17;0.30;99.90
11112;DHT22;5609;49.466;8.468;2023-03-01T02:09:48;0.20;99.90
11112;DHT22;5609;49.466;8.468;2023-03-01T02:12:17;0.30;99.90
11112;DHT22;5609;49.466;8.468;2023-03-01T02:14:44;0.40;99.90
11112;DHT22;5609;49.466;8.468;2023-03-01T02:17:12;0.40;99.90
11112;DHT22;5609;49.466;8.468;2023-03-01T02:19:50;0.30;99.90
11112;DHT22;5609;49.466;8.468;2023-03-01T02:22:22;0.30;99.90
11112;DHT22;5609;49.466;8.468;2023-03-01T02:25:00;0.30;99.90
11112;DHT22;5609;49.466;8.468;2023-03-01T02:27:38;0.30;99.90
11112;DHT22;5609;49.466;8.468;2023-03-01T02:30:09;0.30;99.90
11112;DHT22;5609;49.466;8.468;2023-03-01T02:32:38;0.30;99.90
11112;DHT22;5609;49.466;8.468;2023-03-01T02:35:09;0.30;99.90
11112;DHT22;5609;49.466;8.468;2023-03-01T02:37:36;0.30;99.90
11112;DHT22;5609;49.466;8.468;2023-03-01T02:40:06;0.30;99.90
11112;DHT22;5609;49.466;8.468;2023-03-01T02:42:42;0.30;99.90
11112;DHT22;5609;49.466;8.468;2023-03-01T02:45:13;0.30;99.90
11112;DHT22;5609;49.466;8.468;2023-03-01T02:47:40;0.40;99.90
11112;DHT22;5609;49.466;8.468;2023-03-01T02:50:18;0.40;99.90
11112;DHT22;5609;49.466;8.468;2023-03-01T02:52:54;0.40;99.90
11112;DHT22;5609;49.466;8.468;2023-03-01T02:55:24;0.40;99.90
11112;DHT22;5609;49.466;8.468;2023-03-01T02:57:51;0.40;99.90
11112;DHT22;5609;49.466;8.468;2023-03-01T03:00:21;0.30;99.90
11112;DHT22;5609;49.466;8.468;2023-03-01T03:02:52;0.30;99.90
11112;DHT22;5609;49.466;8.468;2023-03-01T03:05:22;0.30;99.90
11112;DHT22;5609;49.466;8.468;2023-03-01T03:07:50;0.30;99.90
11112;DHT22;5609;49.466;8.468;2023-03-01T03:10:18;0.20;99.90
11112;DHT22;5609;49.466;8.468;2023-03-01T03:12:49;0.20;99.90
11112;DHT22;5609;49.466;8.468;2023-03-01T03:15:16;0.00;99.90
11112;DHT22;5609;49.466;8.468;2023-03-01T03:17:44;-0.10;99.90
11112;DHT22;5609;49.466;8.468;2023-03-01T03:20:13;-0.20;99.90
11112;DHT22;5609;49.466;8.468;2023-03-01T03:22:44;-0.30;99.90
11112;DHT22;5609;49.466;8.468;2023-03-01T03:25:11;-0.30;99.90
11112;DHT22;5609;49.466;8.468;2023-03-01T03:27:39;-0.30;99.90
11112;DHT22;5609;49.466;8.468;2023-03-01T03:30:07;-0.30;99.90
11112;DHT22;5609;49.466;8.468;2023-03-01T03:32:35;-0.40;99.90
11112;DHT22;5609;49.466;8.468;2023-03-01T03:35:04;-0.40;99.90
11112;DHT22;5609;49.466;8.468;2023-03-01T03:37:35;-0.20;99.90
11112;DHT22;5609;49.466;8.468;2023-03-01T03:40:19;-0.10;99.90
11112;DHT22;5609;49.466;8.468;2023-03-01T03:42:46;-0.10;99.90
11112;DHT22;5609;49.466;8.468;2023-03-01T03:45:13;-0.10;99.90
11112;DHT22;5609;49.466;8.468;2023-03-01T03:47:40;-0.10;99.90
11112;DHT22;5609;49.466;8.468;2023-03-01T03:50:10;-0.10;99.90
11112;DHT22;5609;49.466;8.468;2023-03-01T03:52:37;-0.10;99.90
11112;DHT22;5609;49.466;8.468;2023-03-01T03:55:05;-0.10;99.90
11112;DHT22;5609;49.466;8.468;2023-03-01T03:57:36;-0.20;99.90
11112;DHT22;5609;49.466;8.468;2023-03-01T04:00:04;-0.20;99.90
11112;DHT22;5609;49.466;8.468;2023-03-01T04:02:38;-0.30;99.90
11112;DHT22;5609;49.466;8.468;2023-03-01T04:05:05;-0.20;99.90
11112;DHT22;5609;49.466;8.468;2023-03-01T04:07:34;-0.30;99.90
11112;DHT22;5609;49.466;8.468;2023-03-01T04:10:01;-0.30;99.90
11112;DHT22;5609;49.466;8.468;2023-03-01T04:12:28;-0.30;99.90
11112;DHT22;5609;49.466;8.468;2023-03-01T04:14:55;-0.30;99.90
11112;DHT22;5609;49.466;8.468;2023-03-01T04:17:22;-0.40;99.90
11112;DHT22;5609;49.466;8.468;2023-03-01T04:19:48;-0.40;99.90
11112;DHT22;5609;49.466;8.468;2023-03-01T04:22:15;-0.50;99.90
11112;DHT22;5609;49.466;8.468;2023-03-01T04:24:44;-0.50;99.90
11112;DHT22;5609;49.466;8.468;2023-03-01T04:27:11;-0.60;99.90
11112;DHT22;5609;49.466;8.468;2023-03-01T04:29:38;-0.60;99.90
11112;DHT22;5609;49.466;8.468;2023-03-01T04:32:05;-0.60;99.90
11112;DHT22;5609;49.466;8.468;2023-03-01T04:34:31;-0.70;99.90
11112;DHT22;5609;49.466;8.468;2023-03-01T04:36:58;-0.70;99.90
11112;DHT22;5609;49.466;8.468;2023-03-01T04:39:25;-0.70;99.90
11112;DHT22;5609;49.466;8.468;2023-03-01T04:41:53;-0.60;99.90
11112;DHT22;5609;49.466;8.468;2023-03-01T04:44:19;-0.50;99.90
11112;DHT22;5609;49.466;8.468;2023-03-01T04:46:48;-0.40;99.90
11112;DHT22;5609;49.466;8.468;2023-03-01T04:49:15;-0.40;99.90
11112;DHT22;5609;49.466;8.468;2023-03-01T04:51:42;-0.40;99.90
11112;DHT22;5609;49.466;8.468;2023-03-01T04:54:09;-0.40;99.90
11112;DHT22;5609;49.466;8.468;2023-03-01T04:56:36;-0.40;99.90
11112;DHT22;5609;49.466;8.468;2023-03-01T04:59:04;-0.30;99.90
11112;DHT22;5609;49.466;8.468;2023-03-01T05:01:31;-0.20;99.90
11112;DHT22;5609;49.466;8.468;2023-03-01T05:03:58;-0.20;99.90
11112;DHT22;5609;49.466;8.468;2023-03-01T05:06:28;-0.20;99.90
11112;DHT22;5609;49.466;8.468;2023-03-01T05:08:55;-0.20;99.90
11112;DHT22;5609;49.466;8.468;2023-03-01T05:11:22;-0.20;99.90
11112;DHT22;5609;49.466;8.468;2023-03-01T05:13:49;-0.20;99.90
11112;DHT22;5609;49.466;8.468;2023-03-01T05:16:21;-0.20;99.90
11112;DHT22;5609;49.466;8.468;2023-03-01T05:18:48;-0.10;99.90
11112;DHT22;5609;49.466;8.468;2023-03-01T05:21:16;-0.10;99.90
11112;DHT22;5609;49.466;8.468;2023-03-01T05:23:43;-0.20;99.90
11112;DHT22;5609;49.466;8.468;2023-03-01T05:26:10;-0.20;99.90
11112;DHT22;5609;49.466;8.468;2023-03-01T05:28:38;-0.20;99.90
11112;DHT22;5609;49.466;8.468;2023-03-01T05:31:05;-0.10;99.90
11112;DHT22;5609;49.466;8.468;2023-03-01T05:33:36;-0.10;99.90
11112;DHT22;5609;49.466;8.468;2023-03-01T05:36:04;0.00;99.90
11112;DHT22;5609;49.466;8.468;2023-03-01T05:38:31;0.00;99.90
11112;DHT22;5609;49.466;8.468;2023-03-01T05:40:57;-0.10;99.90
11112;DHT22;5609;49.466;8.468;2023-03-01T05:43:24;-0.10;99.90
11112;DHT22;5609;49.466;8.468;2023-03-01T05:45:51;-0.10;99.90
11112;DHT22;5609;49.466;8.468;2023-03-01T05:48:18;0.00;99.90
11112;DHT22;5609;49.466;8.468;2023-03-01T05:50:47;0.00;99.90
11112;DHT22;5609;49.466;8.468;2023-03-01T05:53:16;0.00;99.90
11112;DHT22;5609;49.466;8.468;2023-03-01T05:55:45;0.00;99.90
11112;DHT22;5609;49.466;8.468;2023-03-01T05:58:14;0.00;99.90
11112;DHT22;5609;49.466;8.468;2023-03-01T06:00:42;0.00;99.90
11112;DHT22;5609;49.466;8.468;2023-03-01T06:03:11;0.00;99.90
11112;DHT22;5609;49.466;8.468;2023-03-01T06:05:38;0.10;99.90
11112;DHT22;5609;49.466;8.468;2023-03-01T06:08:07;0.10;99.90
11112;DHT22;5609;49.466;8.468;2023-03-01T06:10:36;0.20;99.90
11112;DHT22;5609;49.466;8.468;2023-03-01T06:13:04;0.20;99.90
11112;DHT22;5609;49.466;8.468;2023-03-01T06:15:31;0.20;99.90
11112;DHT22;5609;49.466;8.468;2023-03-01T06:17:58;0.20;99.90
11112;DHT22;5609;49.466;8.468;2023-03-01T06:20:27;0.20;99.90
11112;DHT22;5609;49.466;8.468;2023-03-01T06:22:54;0.30;99.90
11112;DHT22;5609;49.466;8.468;2023-03-01T06:25:24;0.30;99.90
11112;DHT22;5609;49.466;8.468;2023-03-01T06:27:51;0.40;99.90
11112;DHT22;5609;49.466;8.468;2023-03-01T06:30:20;0.40;99.90
11112;DHT22;5609;49.466;8.468;2023-03-01T06:32:49;0.40;99.90
11112;DHT22;5609;49.466;8.468;2023-03-01T06:35:17;0.50;99.90
11112;DHT22;5609;49.466;8.468;2023-03-01T06:37:44;0.60;99.90
11112;DHT22;5609;49.466;8.468;2023-03-01T06:40:12;0.60;99.90
11112;DHT22;5609;49.466;8.468;2023-03-01T06:42:43;0.60;99.90
11112;DHT22;5609;49.466;8.468;2023-03-01T06:45:11;0.70;99.90
11112;DHT22;5609;49.466;8.468;2023-03-01T06:47:37;0.80;99.90
11112;DHT22;5609;49.466;8.468;2023-03-01T06:50:05;0.80;99.90
11112;DHT22;5609;49.466;8.468;2023-03-01T06:52:32;0.90;99.90
11112;DHT22;5609;49.466;8.468;2023-03-01T06:54:59;1.00;99.90
11112;DHT22;5609;49.466;8.468;2023-03-01T06:57:26;1.10;99.90
11112;DHT22;5609;49.466;8.468;2023-03-01T06:59:54;1.10;99.90
11112;DHT22;5609;49.466;8.468;2023-03-01T07:02:21;1.10;99.90
11112;DHT22;5609;49.466;8.468;2023-03-01T07:04:48;1.10;99.90
11112;DHT22;5609;49.466;8.468;2023-03-01T07:07:15;1.10;99.90
11112;DHT22;5609;49.466;8.468;2023-03-01T07:09:43;1.20;99.90
11112;DHT22;5609;49.466;8.468;2023-03-01T07:12:10;1.30;99.90
11112;DHT22;5609;49.466;8.468;2023-03-01T07:14:36;1.30;99.90
11112;DHT22;5609;49.466;8.468;2023-03-01T07:17:04;1.30;99.90
11112;DHT22;5609;49.466;8.468;2023-03-01T07:19:32;1.40;99.90
11112;DHT22;5609;49.466;8.468;2023-03-01T07:21:58;1.40;99.90
11112;DHT22;5609;49.466;8.468;2023-03-01T07:24:25;1.40;99.90
11112;DHT22;5609;49.466;8.468;2023-03-01T07:26:52;1.50;99.90
11112;DHT22;5609;49.466;8.468;2023-03-01T07:29:19;1.60;99.90
11112;DHT22;5609;49.466;8.468;2023-03-01T07:31:46;1.60;99.90
11112;DHT22;5609;49.466;8.468;2023-03-01T07:34:14;1.60;99.90
11112;DHT22;5609;49.466;8.468;2023-03-01T07:36:41;1.70;99.90
11112;DHT22;5609;49.466;8.468;2023-03-01T07:39:09;1.70;99.90
11112;DHT22;5609;49.466;8.468;2023-03-01T07:41:36;1.70;99.90
11112;DHT22;5609;49.466;8.468;2023-03-01T07:44:03;1.80;99.90
11112;DHT22;5609;49.466;8.468;2023-03-01T07:46:29;1.80;99.90
11112;DHT22;5609;49.466;8.468;2023-03-01T07:48:56;1.90;99.90
11112;DHT22;5609;49.466;8.468;2023-03-01T07:51:25;1.90;99.90
11112;DHT22;5609;49.466;8.468;2023-03-01T07:53:51;2.00;99.90
11112;DHT22;5609;49.466;8.468;2023-03-01T07:56:18;2.00;99.90
11112;DHT22;5609;49.466;8.468;2023-03-01T07:58:46;2.10;99.90
11112;DHT22;5609;49.466;8.468;2023-03-01T08:01:17;2.20;99.90
11112;DHT22;5609;49.466;8.468;2023-03-01T08:03:44;2.20;99.90
11112;DHT22;5609;49.466;8.468;2023-03-01T08:06:12;2.30;99.90
11112;DHT22;5609;49.466;8.468;2023-03-01T08:08:41;2.40;99.90
11112;DHT22;5609;49.466;8.468;2023-03-01T08:11:14;2.40;99.90
11112;DHT22;5609;49.466;8.468;2023-03-01T08:13:41;2.50;99.90
11112;DHT22;5609;49.466;8.468;2023-03-01T08:16:10;2.60;99.90
11112;DHT22;5609;49.466;8.468;2023-03-01T08:18:38;2.70;99.90
11112;DHT22;5609;49.466;8.468;2023-03-01T08:21:06;2.70;99.90
11112;DHT22;5609;49.466;8.468;2023-03-01T08:23:34;2.80;99.90
11112;DHT22;5609;49.466;8.468;2023-03-01T08:26:07;2.90;99.90
11112;DHT22;5609;49.466;8.468;2023-03-01T08:28:34;2.80;99.90
11112;DHT22;5609;49.466;8.468;2023-03-01T08:31:01;2.90;99.90
11112;DHT22;5609;49.466;8.468;2023-03-01T08:33:28;3.00;99.90
11112;DHT22;5609;49.466;8.468;2023-03-01T08:36:03;3.20;99.90
11112;DHT22;5609;49.466;8.468;2023-03-01T08:38:32;3.30;99.90
11112;DHT22;5609;49.466;8.468;2023-03-01T08:41:00;3.40;99.90
11112;DHT22;5609;49.466;8.468;2023-03-01T08:43:28;3.50;99.90
11112;DHT22;5609;49.466;8.468;2023-03-01T08:45:55;3.60;99.90
11112;DHT22;5609;49.466;8.468;2023-03-01T08:48:22;3.50;99.90
11112;DHT22;5609;49.466;8.468;2023-03-01T08:50:48;3.40;99.90
11112;DHT22;5609;49.466;8.468;2023-03-01T08:53:15;3.50;99.90
11112;DHT22;5609;49.466;8.468;2023-03-01T08:55:42;3.60;99.90
11112;DHT22;5609;49.466;8.468;2023-03-01T08:58:09;3.80;99.90
11112;DHT22;5609;49.466;8.468;2023-03-01T09:00:37;3.80;99.90
11112;DHT22;5609;49.466;8.468;2023-03-01T09:03:04;3.90;99.90
11112;DHT22;5609;49.466;8.468;2023-03-01T09:05:31;3.90;99.90
11112;DHT22;5609;49.466;8.468;2023-03-01T09:07:58;4.00;99.90
11112;DHT22;5609;49.466;8.468;2023-03-01T09:10:25;4.00;99.90
11112;DHT22;5609;49.466;8.468;2023-03-01T09:12:52;4.10;99.90
11112;DHT22;5609;49.466;8.468;2023-03-01T09:15:19;4.20;99.90
11112;DHT22;5609;49.466;8.468;2023-03-01T09:17:47;4.20;99.90
11112;DHT22;5609;49.466;8.468;2023-03-01T09:20:14;4.20;99.90
11112;DHT22;5609;49.466;8.468;2023-03-01T09:22:40;4.40;99.90
11112;DHT22;5609;49.466;8.468;2023-03-01T09:25:07;4.60;99.90
11112;DHT22;5609;49.466;8.468;2023-03-01T09:27:35;4.70;99.90
11112;DHT22;5609;49.466;8.468;2023-03-01T09:30:02;4.70;99.90
11112;DHT22;5609;49.466;8.468;2023-03-01T09:32:30;4.70;99.90
11112;DHT22;5609;49.466;8.468;2023-03-01T09:34:58;4.80;99.90
11112;DHT22;5609;49.466;8.468;2023-03-01T09:37:31;4.90;99.90
11112;DHT22;5609;49.466;8.468;2023-03-01T09:39:58;4.90;99.90
11112;DHT22;5609;49.466;8.468;2023-03-01T09:42:25;4.80;99.90
11112;DHT22;5609;49.466;8.468;2023-03-01T09:44:57;5.00;99.90
11112;DHT22;5609;49.466;8.468;2023-03-01T09:47:27;5.10;99.90
11112;DHT22;5609;49.466;8.468;2023-03-01T09:50:04;5.00;99.90
11112;DHT22;5609;49.466;8.468;2023-03-01T09:52:37;5.20;99.90
11112;DHT22;5609;49.466;8.468;2023-03-01T09:55:10;5.30;99.90
11112;DHT22;5609;49.466;8.468;2023-03-01T09:57:43;5.30;99.90
11112;DHT22;5609;49.466;8.468;2023-03-01T10:00:25;5.40;99.90
11112;DHT22;5609;49.466;8.468;2023-03-01T10:02:59;5.50;99.90
11112;DHT22;5609;49.466;8.468;2023-03-01T10:05:39;5.70;99.90
11112;DHT22;5609;49.466;8.468;2023-03-01T10:08:27;5.80;99.80
11112;DHT22;5609;49.466;8.468;2023-03-01T10:10:57;6.00;99.90
11112;DHT22;5609;49.466;8.468;2023-03-01T10:13:28;6.20;98.10
11112;DHT22;5609;49.466;8.468;2023-03-01T10:16:03;6.30;96.30
11112;DHT22;5609;49.466;8.468;2023-03-01T10:18:33;6.40;94.30
11112;DHT22;5609;49.466;8.468;2023-03-01T10:21:14;6.40;94.00
11112;DHT22;5609;49.466;8.468;2023-03-01T10:23:42;6.60;93.40
11112;DHT22;5609;49.466;8.468;2023-03-01T10:26:23;6.50;91.80
11112;DHT22;5609;49.466;8.468;2023-03-01T10:29:00;6.50;91.20
11112;DHT22;5609;49.466;8.468;2023-03-01T10:31:37;6.50;92.40
11112;DHT22;5609;49.466;8.468;2023-03-01T10:34:12;6.60;92.30
11112;DHT22;5609;49.466;8.468;2023-03-01T10:36:42;6.70;91.50
11112;DHT22;5609;49.466;8.468;2023-03-01T10:39:15;6.90;89.10
11112;DHT22;5609;49.466;8.468;2023-03-01T10:42:02;7.00;86.10
11112;DHT22;5609;49.466;8.468;2023-03-01T10:44:48;7.30;82.30
11112;DHT22;5609;49.466;8.468;2023-03-01T10:47:17;7.20;80.30
11112;DHT22;5609;49.466;8.468;2023-03-01T10:49:54;7.30;80.60
11112;DHT22;5609;49.466;8.468;2023-03-01T10:52:24;7.50;76.10
11112;DHT22;5609;49.466;8.468;2023-03-01T10:54:54;7.50;76.10
11112;DHT22;5609;49.466;8.468;2023-03-01T10:57:29;7.60;71.20
11112;DHT22;5609;49.466;8.468;2023-03-01T11:00:10;7.70;72.40
11112;DHT22;5609;49.466;8.468;2023-03-01T11:02:42;8.00;99.90
11112;DHT22;5609;49.466;8.468;2023-03-01T11:05:18;8.40;93.50
11112;DHT22;5609;49.466;8.468;2023-03-01T11:07:51;8.80;99.90
11112;DHT22;5609;49.466;8.468;2023-03-01T11:10:22;9.30;99.90
11112;DHT22;5609;49.466;8.468;2023-03-01T11:12:51;9.40;99.90
11112;DHT22;5609;49.466;8.468;2023-03-01T11:15:25;9.80;99.90
11112;DHT22;5609;49.466;8.468;2023-03-01T11:17:53;9.80;59.20
11112;DHT22;5609;49.466;8.468;2023-03-01T11:20:25;9.70;99.90
11112;DHT22;5609;49.466;8.468;2023-03-01T11:22:56;9.70;61.80
11112;DHT22;5609;49.466;8.468;2023-03-01T11:25:26;9.50;99.90
11112;DHT22;5609;49.466;8.468;2023-03-01T11:27:54;10.20;99.90
11112;DHT22;5609;49.466;8.468;2023-03-01T11:30:25;10.30;99.90
11112;DHT22;5609;49.466;8.468;2023-03-01T11:33:03;10.70;95.80
11112;DHT22;5609;49.466;8.468;2023-03-01T11:35:32;10.90;99.90
11112;DHT22;5609;49.466;8.468;2023-03-01T11:38:15;10.80;60.20
11112;DHT22;5609;49.466;8.468;2023-03-01T11:40:46;10.50;43.90
11112;DHT22;5609;49.466;8.468;2023-03-01T11:43:19;10.70;70.80
11112;DHT22;5609;49.466;8.468;2023-03-01T11:45:58;10.80;91.20
11112;DHT22;5609;49.466;8.468;2023-03-01T11:48:35;11.20;97.50
11112;DHT22;5609;49.466;8.468;2023-03-01T11:51:09;11.10;44.50
11112;DHT22;5609;49.466;8.468;2023-03-01T11:53:52;11.10;43.20
11112;DHT22;5609;49.466;8.468;2023-03-01T11:56:28;11.30;95.10
11112;DHT22;5609;49.466;8.468;2023-03-01T11:59:25;11.50;56.60
11112;DHT22;5609;49.466;8.468;2023-03-01T12:02:12;11.40;26.90
11112;DHT22;5609;49.466;8.468;2023-03-01T12:04:59;11.20;27.80
11112;DHT22;5609;49.466;8.468;2023-03-01T12:07:38;11.20;55.20
11112;DHT22;5609;49.466;8.468;2023-03-01T12:10:26;11.70;51.90
11112;DHT22;5609;49.466;8.468;2023-03-01T12:13:08;11.70;30.40
11112;DHT22;5609;49.466;8.468;2023-03-01T12:16:03;11.60;24.10
11112;DHT22;5609;49.466;8.468;2023-03-01T12:19:05;11.40;28.00
11112;DHT22;5609;49.466;8.468;2023-03-01T12:21:46;11.20;47.60
11112;DHT22;5609;49.466;8.468;2023-03-01T12:24:28;11.40;40.50
11112;DHT22;5609;49.466;8.468;2023-03-01T12:27:10;11.60;54.00
11112;DHT22;5609;49.466;8.468;2023-03-01T12:29:44;11.70;28.80
11112;DHT22;5609;49.466;8.468;2023-03-01T12:32:31;11.70;21.50
11112;DHT22;5609;49.466;8.468;2023-03-01T12:35:23;11.70;11.70
11112;DHT22;5609;49.466;8.468;2023-03-01T12:37:56;11.20;9.90
11112;DHT22;5609;49.466;8.468;2023-03-01T12:40:51;11.20;11.50
11112;DHT22;5609;49.466;8.468;2023-03-01T12:43:38;11.40;9.50
11112;DHT22;5609;49.466;8.468;2023-03-01T12:46:25;11.40;8.70
11112;DHT22;5609;49.466;8.468;2023-03-01T12:49:02;11.00;8.70
11112;DHT22;5609;49.466;8.468;2023-03-01T12:51:34;11.00;8.90
11112;DHT22;5609;49.466;8.468;2023-03-01T12:54:07;10.90;9.70
11112;DHT22;5609;49.466;8.468;2023-03-01T12:56:38;11.00;10.90
11112;DHT22;5609;49.466;8.468;2023-03-01T12:59:11;11.40;8.70
11112;DHT22;5609;49.466;8.468;2023-03-01T13:01:44;11.50;6.30
11112;DHT22;5609;49.466;8.468;2023-03-01T13:04:21;11.80;6.20
11112;DHT22;5609;49.466;8.468;2023-03-01T13:07:16;12.00;4.20
11112;DHT22;5609;49.466;8.468;2023-03-01T13:09:51;12.30;3.60
11112;DHT22;5609;49.466;8.468;2023-03-01T13:12:44;12.80;1.10
11112;DHT22;5609;49.466;8.468;2023-03-01T13:15:27;13.00;1.00
11112;DHT22;5609;49.466;8.468;2023-03-01T13:17:55;13.00;1.00
11112;DHT22;5609;49.466;8.468;2023-03-01T13:20:25;12.90;1.00
11112;DHT22;5609;49.466;8.468;2023-03-01T13:23:07;12.70;1.00
11112;DHT22;5609;49.466;8.468;2023-03-01T13:25:34;12.90;1.00
11112;DHT22;5609;49.466;8.468;2023-03-01T13:31:55;12.90;1.00
11112;DHT22;5609;49.466;8.468;2023-03-01T13:33:59;13.00;1.00
11112;DHT22;5609;49.466;8.468;2023-03-01T13:36:47;13.10;1.00
11112;DHT22;5609;49.466;8.468;2023-03-01T13:39:29;13.30;1.00
11112;DHT22;5609;49.466;8.468;2023-03-01T13:41:58;13.60;1.00
11112;DHT22;5609;49.466;8.468;2023-03-01T13:44:30;14.00;1.00
11112;DHT22;5609;49.466;8.468;2023-03-01T13:47:01;14.20;1.00
11112;DHT22;5609;49.466;8.468;2023-03-01T13:49:42;14.30;1.00
11112;DHT22;5609;49.466;8.468;2023-03-01T13:52:29;14.40;1.00
11112;DHT22;5609;49.466;8.468;2023-03-01T13:54:57;14.40;1.00
11112;DHT22;5609;49.466;8.468;2023-03-01T13:57:30;14.60;1.00
11112;DHT22;5609;49.466;8.468;2023-03-01T13:59:59;14.70;1.00
11112;DHT22;5609;49.466;8.468;2023-03-01T14:02:25;14.80;1.00
11112;DHT22;5609;49.466;8.468;2023-03-01T14:05:00;14.90;1.00
11112;DHT22;5609;49.466;8.468;2023-03-01T14:07:28;14.90;1.00
11112;DHT22;5609;49.466;8.468;2023-03-01T14:09:57;15.20;1.00
11112;DHT22;5609;49.466;8.468;2023-03-01T14:12:39;15.00;1.00
11112;DHT22;5609;49.466;8.468;2023-03-01T14:15:17;14.70;1.00
11112;DHT22;5609;49.466;8.468;2023-03-01T14:17:52;14.40;1.00
11112;DHT22;5609;49.466;8.468;2023-03-01T14:20:26;14.60;1.00
11112;DHT22;5609;49.466;8.468;2023-03-01T14:22:55;14.70;1.00
11112;DHT22;5609;49.466;8.468;2023-03-01T14:25:27;14.80;1.00
11112;DHT22;5609;49.466;8.468;2023-03-01T14:28:00;15.10;1.00
11112;DHT22;5609;49.466;8.468;2023-03-01T14:30:31;15.50;1.00
11112;DHT22;5609;49.466;8.468;2023-03-01T14:33:00;15.20;1.00
11112;DHT22;5609;49.466;8.468;2023-03-01T14:35:30;15.50;1.00
11112;DHT22;5609;49.466;8.468;2023-03-01T14:37:57;15.60;1.00
11112;DHT22;5609;49.466;8.468;2023-03-01T14:40:26;15.60;1.00
11112;DHT22;5609;49.466;8.468;2023-03-01T14:42:54;15.60;1.00
11112;DHT22;5609;49.466;8.468;2023-03-01T14:45:23;15.70;1.00
11112;DHT22;5609;49.466;8.468;2023-03-01T14:47:51;16.00;1.00
11112;DHT22;5609;49.466;8.468;2023-03-01T14:50:23;16.30;1.00
11112;DHT22;5609;49.466;8.468;2023-03-01T14:52:54;16.20;1.00
11112;DHT22;5609;49.466;8.468;2023-03-01T14:55:25;16.60;1.00
11112;DHT22;5609;49.466;8.468;2023-03-01T14:57:53;16.90;1.00
11112;DHT22;5609;49.466;8.468;2023-03-01T15:00:22;16.60;1.00
11112;DHT22;5609;49.466;8.468;2023-03-01T15:02:51;17.00;1.00
11112;DHT22;5609;49.466;8.468;2023-03-01T15:05:24;17.20;1.00
11112;DHT22;5609;49.466;8.468;2023-03-01T15:07:53;16.40;1.00
11112;DHT22;5609;49.466;8.468;2023-03-01T15:10:23;16.00;1.00
11112;DHT22;5609;49.466;8.468;2023-03-01T15:12:51;16.30;1.00
11112;DHT22;5609;49.466;8.468;2023-03-01T15:15:36;16.60;1.00
11112;DHT22;5609;49.466;8.468;2023-03-01T15:18:12;16.80;1.00
11112;DHT22;5609;49.466;8.468;2023-03-01T15:20:40;16.80;1.00
11112;DHT22;5609;49.466;8.468;2023-03-01T15:23:19;17.00;1.00
11112;DHT22;5609;49.466;8.468;2023-03-01T15:25:46;17.30;1.00
11112;DHT22;5609;49.466;8.468;2023-03-01T15:28:23;17.00;1.00
11112;DHT22;5609;49.466;8.468;2023-03-01T15:30:56;17.00;1.00
11112;DHT22;5609;49.466;8.468;2023-03-01T15:33:33;17.10;1.00
11112;DHT22;5609;49.466;8.468;2023-03-01T15:36:00;17.40;1.00
11112;DHT22;5609;49.466;8.468;2023-03-01T15:38:34;16.80;1.00
11112;DHT22;5609;49.466;8.468;2023-03-01T15:41:19;16.50;1.00
11112;DHT22;5609;49.466;8.468;2023-03-01T15:43:47;16.10;1.00
11112;DHT22;5609;49.466;8.468;2023-03-01T15:46:18;16.10;1.00
11112;DHT22;5609;49.466;8.468;2023-03-01T15:48:46;15.70;1.00
11112;DHT22;5609;49.466;8.468;2023-03-01T15:51:14;15.50;1.00
11112;DHT22;5609;49.466;8.468;2023-03-01T15:53:43;15.40;1.00
11112;DHT22;5609;49.466;8.468;2023-03-01T15:56:13;15.30;1.00
11112;DHT22;5609;49.466;8.468;2023-03-01T15:58:40;15.00;1.00
11112;DHT22;5609;49.466;8.468;2023-03-01T16:01:11;14.60;1.00
11112;DHT22;5609;49.466;8.468;2023-03-01T16:03:39;14.20;1.00
11112;DHT22;5609;49.466;8.468;2023-03-01T16:06:06;14.00;1.00
11112;DHT22;5609;49.466;8.468;2023-03-01T16:08:34;13.90;1.00
11112;DHT22;5609;49.466;8.468;2023-03-01T16:11:02;13.70;1.00
11112;DHT22;5609;49.466;8.468;2023-03-01T16:13:31;13.40;1.00
11112;DHT22;5609;49.466;8.468;2023-03-01T16:15:58;13.20;1.00
11112;DHT22;5609;49.466;8.468;2023-03-01T16:18:24;12.90;1.00
11112;DHT22;5609;49.466;8.468;2023-03-01T16:20:51;12.30;1.00
11112;DHT22;5609;49.466;8.468;2023-03-01T16:23:19;12.10;1.00